sensor_id;sensor_type;location;lat;lon;timestamp;temperature;humidity
33739;DHT22;20063;51.730;11.110;2023-03-24T00:02:19;11.90;99.90
33739;DHT22;20063;51.730;11.110;2023-03-24T00:04:48;11.90;99.90
33739;DHT22;20063;51.730;11.110;2023-03-24T00:07:16;11.90;99.90
33739;DHT22;20063;51.730;11.110;2023-03-24T00:09:44;12.00;99.90
33739;DHT22;20063;51.730;11.110;2023-03-24T00:12:11;12.00;99.90
33739;DHT22;20063;51.730;11.110;2023-03-24T00:14:39;12.00;99.90
33739;DHT22;20063;51.730;11.110;2023-03-24T00:17:06;12.00;99.90
33739;DHT22;20063;51.730;11.110;2023-03-24T00:19:35;12.00;99.90
33739;DHT22;20063;51.730;11.110;2023-03-24T00:22:07;12.00;99.90
33739;DHT22;20063;51.730;11.110;2023-03-24T00:24:34;12.10;99.90
33739;DHT22;20063;51.730;11.110;2023-03-24T00:27:00;12.00;99.90
33739;DHT22;20063;51.730;11.110;2023-03-24T00:29:27;12.10;99.90
33739;DHT22;20063;51.730;11.110;2023-03-24T00:31:53;12.10;99.90
33739;DHT22;20063;51.730;11.110;2023-03-24T00:34:19;12.10;99.90
33739;DHT22;20063;51.730;11.110;2023-03-24T00:36:49;12.10;99.90
33739;DHT22;20063;51.730;11.110;2023-03-24T00:39:17;12.10;99.90
33739;DHT22;20063;51.730;11.110;2023-03-24T00:41:44;12.10;99.90
33739;DHT22;20063;51.730;11.110;2023-03-24T00:44:11;12.00;99.90
33739;DHT22;20063;51.730;11.110;2023-03-24T00:46:46;12.00;99.90
33739;DHT22;20063;51.730;11.110;2023-03-24T00:49:26;12.00;99.90
33739;DHT22;20063;51.730;11.110;2023-03-24T00:52:15;12.00;99.90
33739;DHT22;20063;51.730;11.110;2023-03-24T00:54:46;11.90;99.90
33739;DHT22;20063;51.730;11.110;2023-03-24T00:57:13;11.90;99.90
33739;DHT22;20063;51.730;11.110;2023-03-24T00:59:46;11.80;99.90
33739;DHT22;20063;51.730;11.110;2023-03-24T01:02:15;11.80;99.90
33739;DHT22;20063;51.730;11.110;2023-03-24T01:04:43;11.80;99.90
33739;DHT22;20063;51.730;11.110;2023-03-24T01:07:13;11.70;99.90
33739;DHT22;20063;51.730;11.110;2023-03-24T01:09:44;11.70;99.90
33739;DHT22;20063;51.730;11.110;2023-03-24T01:12:19;11.70;99.90
33739;DHT22;20063;51.730;11.110;2023-03-24T01:14:46;11.70;99.90
33739;DHT22;20063;51.730;11.110;2023-03-24T01:17:11;11.60;99.90
33739;DHT22;20063;51.730;11.110;2023-03-24T01:19:37;11.70;99.90
33739;DHT22;20063;51.730;11.110;2023-03-24T01:22:05;11.70;99.90
33739;DHT22;20063;51.730;11.110;2023-03-24T01:24:30;11.60;99.90
33739;DHT22;20063;51.730;11.110;2023-03-24T01:26:56;11.60;99.90
33739;DHT22;20063;51.730;11.110;2023-03-24T01:29:22;11.70;99.90
33739;DHT22;20063;51.730;11.110;2023-03-24T01:31:47;11.60;99.90
33739;DHT22;20063;51.730;11.110;2023-03-24T01:34:13;11.60;99.90
33739;DHT22;20063;51.730;11.110;2023-03-24T01:36:38;11.60;99.90
33739;DHT22;20063;51.730;11.110;2023-03-24T01:39:04;11.60;99.90
33739;DHT22;20063;51.730;11.110;2023-03-24T01:41:35;11.60;99.90
33739;DHT22;20063;51.730;11.110;2023-03-24T01:44:25;11.60;99.90
33739;DHT22;20063;51.730;11.110;2023-03-24T01:46:52;11.60;99.90
33739;DHT22;20063;51.730;11.110;2023-03-24T01:49:17;11.60;99.90
33739;DHT22;20063;51.730;11.110;2023-03-24T01:51:45;11.70;99.90
33739;DHT22;20063;51.730;11.110;2023-03-24T01:54:23;11.70;99.90
33739;DHT22;20063;51.730;11.110;2023-03-24T01:56:54;11.70;99.90
33739;DHT22;20063;51.730;11.110;2023-03-24T01:59:25;11.70;99.90
33739;DHT22;20063;51.730;11.110;2023-03-24T02:01:52;11.60;99.90
33739;DHT22;20063;51.730;11.110;2023-03-24T02:04:28;11.60;99.90
33739;DHT22;20063;51.730;11.110;2023-03-24T02:06:54;11.60;99.90
33739;DHT22;20063;51.730;11.110;2023-03-24T02:09:20;11.60;99.90
33739;DHT22;20063;51.730;11.110;2023-03-24T02:11:46;11.60;99.90
33739;DHT22;20063;51.730;11.110;2023-03-24T02:14:12;11.60;99.90
33739;DHT22;20063;51.730;11.110;2023-03-24T02:17:00;11.60;99.90
33739;DHT22;20063;51.730;11.110;2023-03-24T02:35:58;11.60;99.90
33739;DHT22;20063;51.730;11.110;2023-03-24T02:41:32;11.60;99.90
33739;DHT22;20063;51.730;11.110;2023-03-24T02:44:25;11.60;99.90
33739;DHT22;20063;51.730;11.110;2023-03-24T02:47:02;11.60;99.90
33739;DHT22;20063;51.730;11.110;2023-03-24T02:49:55;11.60;99.90
33739;DHT22;20063;51.730;11.110;2023-03-24T02:52:29;11.60;99.90
33739;DHT22;20063;51.730;11.110;2023-03-24T02:57:39;11.60;99.90
33739;DHT22;20063;51.730;11.110;2023-03-24T03:03:00;11.60;99.90
33739;DHT22;20063;51.730;11.110;2023-03-24T03:05:29;11.60;99.90
33739;DHT22;20063;51.730;11.110;2023-03-24T03:07:58;11.70;99.90
33739;DHT22;20063;51.730;11.110;2023-03-24T03:10:35;11.70;99.90
33739;DHT22;20063;51.730;11.110;2023-03-24T03:13:02;11.70;99.90
33739;DHT22;20063;51.730;11.110;2023-03-24T03:15:36;11.80;99.90
33739;DHT22;20063;51.730;11.110;2023-03-24T03:20:39;11.80;99.90
33739;DHT22;20063;51.730;11.110;2023-03-24T03:23:23;11.90;99.90
33739;DHT22;20063;51.730;11.110;2023-03-24T03:25:54;12.00;99.90
33739;DHT22;20063;51.730;11.110;2023-03-24T03:28:24;12.00;99.90
33739;DHT22;20063;51.730;11.110;2023-03-24T03:30:56;12.00;99.90
33739;DHT22;20063;51.730;11.110;2023-03-24T03:33:26;12.10;99.90
33739;DHT22;20063;51.730;11.110;2023-03-24T03:41:03;12.00;99.90
33739;DHT22;20063;51.730;11.110;2023-03-24T03:43:30;12.10;99.90
33739;DHT22;20063;51.730;11.110;2023-03-24T03:45:58;12.10;99.90
33739;DHT22;20063;51.730;11.110;2023-03-24T03:48:25;12.10;99.90
33739;DHT22;20063;51.730;11.110;2023-03-24T03:50:55;12.10;99.90
33739;DHT22;20063;51.730;11.110;2023-03-24T03:53:27;12.10;99.90
33739;DHT22;20063;51.730;11.110;2023-03-24T03:55:56;12.10;99.90
33739;DHT22;20063;51.730;11.110;2023-03-24T03:58:22;12.20;99.90
33739;DHT22;20063;51.730;11.110;2023-03-24T04:00:48;12.20;99.90
33739;DHT22;20063;51.730;11.110;2023-03-24T04:20:23;12.20;99.90
33739;DHT22;20063;51.730;11.110;2023-03-24T04:23:08;12.20;99.90
33739;DHT22;20063;51.730;11.110;2023-03-24T04:28:50;12.20;99.90
33739;DHT22;20063;51.730;11.110;2023-03-24T04:31:40;12.20;99.90
33739;DHT22;20063;51.730;11.110;2023-03-24T04:34:32;12.10;99.90
33739;DHT22;20063;51.730;11.110;2023-03-24T04:37:11;12.20;99.90
33739;DHT22;20063;51.730;11.110;2023-03-24T04:39:41;12.20;99.90
33739;DHT22;20063;51.730;11.110;2023-03-24T04:42:12;12.20;99.90
33739;DHT22;20063;51.730;11.110;2023-03-24T04:44:38;12.20;99.90
33739;DHT22;20063;51.730;11.110;2023-03-24T04:47:08;12.20;99.90
33739;DHT22;20063;51.730;11.110;2023-03-24T04:49:38;12.20;99.90
33739;DHT22;20063;51.730;11.110;2023-03-24T04:52:04;12.10;99.90
33739;DHT22;20063;51.730;11.110;2023-03-24T04:54:31;12.10;99.90
33739;DHT22;20063;51.730;11.110;2023-03-24T04:56:58;12.10;99.90
33739;DHT22;20063;51.730;11.110;2023-03-24T04:59:27;12.10;99.90
33739;DHT22;20063;51.730;11.110;2023-03-24T05:01:53;12.10;99.90
33739;DHT22;20063;51.730;11.110;2023-03-24T05:04:22;12.00;99.90
33739;DHT22;20063;51.730;11.110;2023-03-24T05:06:48;12.10;99.90
33739;DHT22;20063;51.730;11.110;2023-03-24T05:09:18;12.00;99.90
33739;DHT22;20063;51.730;11.110;2023-03-24T05:11:46;12.00;99.90
33739;DHT22;20063;51.730;11.110;2023-03-24T05:14:13;12.00;99.90
33739;DHT22;20063;51.730;11.110;2023-03-24T05:16:38;12.00;99.90
33739;DHT22;20063;51.730;11.110;2023-03-24T05:19:07;12.00;99.90
33739;DHT22;20063;51.730;11.110;2023-03-24T05:21:34;12.00;99.90
33739;DHT22;20063;51.730;11.110;2023-03-24T05:23:59;12.00;99.90
33739;DHT22;20063;51.730;11.110;2023-03-24T05:26:25;12.10;99.90
33739;DHT22;20063;51.730;11.110;2023-03-24T05:28:52;12.10;99.90
33739;DHT22;20063;51.730;11.110;2023-03-24T05:31:18;12.10;99.90
33739;DHT22;20063;51.730;11.110;2023-03-24T05:33:44;12.10;99.90
33739;DHT22;20063;51.730;11.110;2023-03-24T05:36:10;12.10;99.90
33739;DHT22;20063;51.730;11.110;2023-03-24T05:38:36;12.10;99.90
33739;DHT22;20063;51.730;11.110;2023-03-24T05:41:02;12.00;99.90
33739;DHT22;20063;51.730;11.110;2023-03-24T05:43:28;12.00;99.90
33739;DHT22;20063;51.730;11.110;2023-03-24T05:45:53;12.00;99.90
33739;DHT22;20063;51.730;11.110;2023-03-24T05:48:20;12.00;99.90
33739;DHT22;20063;51.730;11.110;2023-03-24T05:50:46;12.00;99.90
33739;DHT22;20063;51.730;11.110;2023-03-24T05:53:12;12.00;99.90
33739;DHT22;20063;51.730;11.110;2023-03-24T05:55:37;12.00;99.90
33739;DHT22;20063;51.730;11.110;2023-03-24T05:58:05;12.00;99.90
33739;DHT22;20063;51.730;11.110;2023-03-24T06:00:31;12.00;99.90
33739;DHT22;20063;51.730;11.110;2023-03-24T06:02:58;12.00;99.90
33739;DHT22;20063;51.730;11.110;2023-03-24T06:05:24;12.00;99.90
33739;DHT22;20063;51.730;11.110;2023-03-24T06:07:50;12.00;99.90
33739;DHT22;20063;51.730;11.110;2023-03-24T06:10:18;12.10;99.90
33739;DHT22;20063;51.730;11.110;2023-03-24T06:12:45;12.10;99.90
33739;DHT22;20063;51.730;11.110;2023-03-24T06:15:11;12.10;99.90
33739;DHT22;20063;51.730;11.110;2023-03-24T06:17:41;12.10;99.90
33739;DHT22;20063;51.730;11.110;2023-03-24T06:20:09;12.10;99.90
33739;DHT22;20063;51.730;11.110;2023-03-24T06:22:41;12.10;99.90
33739;DHT22;20063;51.730;11.110;2023-03-24T06:25:09;12.10;99.90
33739;DHT22;20063;51.730;11.110;2023-03-24T06:27:35;12.10;99.90
33739;DHT22;20063;51.730;11.110;2023-03-24T06:30:04;12.20;99.90
33739;DHT22;20063;51.730;11.110;2023-03-24T06:32:29;12.20;99.90
33739;DHT22;20063;51.730;11.110;2023-03-24T06:34:55;12.30;99.90
33739;DHT22;20063;51.730;11.110;2023-03-24T06:37:21;12.30;99.90
33739;DHT22;20063;51.730;11.110;2023-03-24T06:39:47;12.20;99.90
33739;DHT22;20063;51.730;11.110;2023-03-24T06:42:14;12.30;99.90
33739;DHT22;20063;51.730;11.110;2023-03-24T06:44:40;12.30;99.90
33739;DHT22;20063;51.730;11.110;2023-03-24T06:47:06;12.40;99.90
33739;DHT22;20063;51.730;11.110;2023-03-24T06:49:31;12.40;99.90
33739;DHT22;20063;51.730;11.110;2023-03-24T06:51:59;12.40;99.90
33739;DHT22;20063;51.730;11.110;2023-03-24T06:54:26;12.40;99.90
33739;DHT22;20063;51.730;11.110;2023-03-24T06:56:52;12.50;99.90
33739;DHT22;20063;51.730;11.110;2023-03-24T06:59:18;12.50;99.90
33739;DHT22;20063;51.730;11.110;2023-03-24T07:01:49;12.40;99.90
33739;DHT22;20063;51.730;11.110;2023-03-24T07:04:15;12.40;99.90
33739;DHT22;20063;51.730;11.110;2023-03-24T07:06:42;12.50;99.90
33739;DHT22;20063;51.730;11.110;2023-03-24T07:09:08;12.50;99.90
33739;DHT22;20063;51.730;11.110;2023-03-24T07:11:33;12.50;99.90
33739;DHT22;20063;51.730;11.110;2023-03-24T07:13:59;12.60;99.90
33739;DHT22;20063;51.730;11.110;2023-03-24T07:16:27;12.50;99.90
33739;DHT22;20063;51.730;11.110;2023-03-24T07:18:53;12.60;99.90
33739;DHT22;20063;51.730;11.110;2023-03-24T07:21:19;12.60;99.90
33739;DHT22;20063;51.730;11.110;2023-03-24T07:23:44;12.60;99.90
33739;DHT22;20063;51.730;11.110;2023-03-24T07:26:10;12.70;99.90
33739;DHT22;20063;51.730;11.110;2023-03-24T07:28:36;12.70;99.90
33739;DHT22;20063;51.730;11.110;2023-03-24T07:31:04;12.70;99.90
33739;DHT22;20063;51.730;11.110;2023-03-24T07:33:31;12.70;99.90
33739;DHT22;20063;51.730;11.110;2023-03-24T07:35:57;12.70;99.90
33739;DHT22;20063;51.730;11.110;2023-03-24T07:38:24;12.80;99.90
33739;DHT22;20063;51.730;11.110;2023-03-24T07:40:50;12.80;99.90
33739;DHT22;20063;51.730;11.110;2023-03-24T07:43:15;12.80;99.90
33739;DHT22;20063;51.730;11.110;2023-03-24T07:45:43;12.80;99.90
33739;DHT22;20063;51.730;11.110;2023-03-24T07:48:10;12.80;99.90
33739;DHT22;20063;51.730;11.110;2023-03-24T07:50:35;12.80;99.90
33739;DHT22;20063;51.730;11.110;2023-03-24T07:53:01;12.90;99.90
33739;DHT22;20063;51.730;11.110;2023-03-24T07:55:27;12.90;99.90
33739;DHT22;20063;51.730;11.110;2023-03-24T07:57:52;12.90;99.90
33739;DHT22;20063;51.730;11.110;2023-03-24T08:00:18;13.00;99.90
33739;DHT22;20063;51.730;11.110;2023-03-24T08:02:46;13.10;99.90
33739;DHT22;20063;51.730;11.110;2023-03-24T08:05:12;13.10;99.90
33739;DHT22;20063;51.730;11.110;2023-03-24T08:07:43;13.20;99.90
33739;DHT22;20063;51.730;11.110;2023-03-24T08:10:13;13.30;99.90
33739;DHT22;20063;51.730;11.110;2023-03-24T08:12:40;13.40;99.90
33739;DHT22;20063;51.730;11.110;2023-03-24T08:15:07;13.50;99.90
33739;DHT22;20063;51.730;11.110;2023-03-24T08:17:33;13.70;99.90
33739;DHT22;20063;51.730;11.110;2023-03-24T08:19:59;13.70;99.90
33739;DHT22;20063;51.730;11.110;2023-03-24T08:22:24;13.80;99.90
33739;DHT22;20063;51.730;11.110;2023-03-24T08:24:51;13.70;99.90
33739;DHT22;20063;51.730;11.110;2023-03-24T08:27:17;13.80;99.90
33739;DHT22;20063;51.730;11.110;2023-03-24T08:29:42;13.70;99.90
33739;DHT22;20063;51.730;11.110;2023-03-24T08:32:08;13.70;99.90
33739;DHT22;20063;51.730;11.110;2023-03-24T08:34:34;13.60;99.90
33739;DHT22;20063;51.730;11.110;2023-03-24T08:36:59;13.60;99.90
33739;DHT22;20063;51.730;11.110;2023-03-24T08:39:25;13.60;99.90
33739;DHT22;20063;51.730;11.110;2023-03-24T08:41:51;13.70;99.90
33739;DHT22;20063;51.730;11.110;2023-03-24T08:44:18;13.60;99.90
33739;DHT22;20063;51.730;11.110;2023-03-24T08:46:44;13.60;99.90
33739;DHT22;20063;51.730;11.110;2023-03-24T08:49:10;13.50;99.90
33739;DHT22;20063;51.730;11.110;2023-03-24T08:51:36;13.30;99.90
33739;DHT22;20063;51.730;11.110;2023-03-24T08:54:01;13.10;99.90
33739;DHT22;20063;51.730;11.110;2023-03-24T08:56:28;13.10;99.90
33739;DHT22;20063;51.730;11.110;2023-03-24T08:58:54;13.00;99.90
33739;DHT22;20063;51.730;11.110;2023-03-24T09:01:20;13.00;99.90
33739;DHT22;20063;51.730;11.110;2023-03-24T09:03:47;13.10;99.90
33739;DHT22;20063;51.730;11.110;2023-03-24T09:06:13;13.10;99.90
33739;DHT22;20063;51.730;11.110;2023-03-24T09:08:39;13.20;99.90
33739;DHT22;20063;51.730;11.110;2023-03-24T09:11:05;13.30;99.90
33739;DHT22;20063;51.730;11.110;2023-03-24T09:13:31;13.50;99.90
33739;DHT22;20063;51.730;11.110;2023-03-24T09:16:00;13.60;99.90
33739;DHT22;20063;51.730;11.110;2023-03-24T09:18:26;13.70;99.90
33739;DHT22;20063;51.730;11.110;2023-03-24T09:20:52;13.70;99.90
33739;DHT22;20063;51.730;11.110;2023-03-24T09:23:18;13.70;99.90
33739;DHT22;20063;51.730;11.110;2023-03-24T09:25:44;13.60;99.90
33739;DHT22;20063;51.730;11.110;2023-03-24T09:28:10;13.70;99.90
33739;DHT22;20063;51.730;11.110;2023-03-24T09:30:38;13.70;99.90
33739;DHT22;20063;51.730;11.110;2023-03-24T09:33:03;13.80;99.90
33739;DHT22;20063;51.730;11.110;2023-03-24T09:35:29;13.80;99.90
33739;DHT22;20063;51.730;11.110;2023-03-24T09:37:54;13.80;99.90
33739;DHT22;20063;51.730;11.110;2023-03-24T09:40:29;13.80;99.90
33739;DHT22;20063;51.730;11.110;2023-03-24T09:43:23;13.80;99.90
33739;DHT22;20063;51.730;11.110;2023-03-24T09:45:56;13.90;99.90
33739;DHT22;20063;51.730;11.110;2023-03-24T09:48:43;14.00;99.90
33739;DHT22;20063;51.730;11.110;2023-03-24T09:51:23;14.00;99.90
33739;DHT22;20063;51.730;11.110;2023-03-24T09:56:22;14.00;99.90
33739;DHT22;20063;51.730;11.110;2023-03-24T09:58:53;14.00;99.90
33739;DHT22;20063;51.730;11.110;2023-03-24T10:01:24;13.90;99.90
33739;DHT22;20063;51.730;11.110;2023-03-24T10:03:55;13.90;99.90
33739;DHT22;20063;51.730;11.110;2023-03-24T10:06:30;14.00;99.90
33739;DHT22;20063;51.730;11.110;2023-03-24T10:28:24;14.20;99.90
33739;DHT22;20063;51.730;11.110;2023-03-24T10:30:55;14.50;99.90
33739;DHT22;20063;51.730;11.110;2023-03-24T10:33:22;14.70;99.90
33739;DHT22;20063;51.730;11.110;2023-03-24T10:36:04;14.80;99.90
33739;DHT22;20063;51.730;11.110;2023-03-24T10:38:30;14.70;99.90
33739;DHT22;20063;51.730;11.110;2023-03-24T10:40:56;14.60;99.90
33739;DHT22;20063;51.730;11.110;2023-03-24T10:43:22;14.50;99.90
33739;DHT22;20063;51.730;11.110;2023-03-24T10:45:55;14.40;99.90
33739;DHT22;20063;51.730;11.110;2023-03-24T10:53:43;14.30;99.90
33739;DHT22;20063;51.730;11.110;2023-03-24T10:56:20;14.30;99.90
33739;DHT22;20063;51.730;11.110;2023-03-24T10:59:02;14.40;99.90
33739;DHT22;20063;51.730;11.110;2023-03-24T11:01:29;14.50;99.90
33739;DHT22;20063;51.730;11.110;2023-03-24T11:04:03;14.60;99.90
33739;DHT22;20063;51.730;11.110;2023-03-24T11:06:30;14.60;99.90
33739;DHT22;20063;51.730;11.110;2023-03-24T11:09:14;14.60;99.90
33739;DHT22;20063;51.730;11.110;2023-03-24T11:11:42;14.60;99.90
33739;DHT22;20063;51.730;11.110;2023-03-24T11:14:22;14.70;99.90
33739;DHT22;20063;51.730;11.110;2023-03-24T11:16:51;14.70;99.90
33739;DHT22;20063;51.730;11.110;2023-03-24T11:19:22;14.60;99.90
33739;DHT22;20063;51.730;11.110;2023-03-24T11:21:50;14.50;99.90
33739;DHT22;20063;51.730;11.110;2023-03-24T11:24:18;14.50;99.90
33739;DHT22;20063;51.730;11.110;2023-03-24T11:26:55;14.40;99.90
33739;DHT22;20063;51.730;11.110;2023-03-24T11:29:23;14.40;99.90
33739;DHT22;20063;51.730;11.110;2023-03-24T11:32:15;14.40;99.90
33739;DHT22;20063;51.730;11.110;2023-03-24T11:34:46;14.30;99.90
33739;DHT22;20063;51.730;11.110;2023-03-24T11:37:17;14.30;99.90
33739;DHT22;20063;51.730;11.110;2023-03-24T11:39:44;14.30;99.90
33739;DHT22;20063;51.730;11.110;2023-03-24T11:42:29;14.20;99.90
33739;DHT22;20063;51.730;11.110;2023-03-24T11:44:54;14.20;99.90
33739;DHT22;20063;51.730;11.110;2023-03-24T11:47:29;14.20;99.90
33739;DHT22;20063;51.730;11.110;2023-03-24T11:52:53;14.10;99.90
33739;DHT22;20063;51.730;11.110;2023-03-24T12:01:06;14.30;99.90
33739;DHT22;20063;51.730;11.110;2023-03-24T12:06:39;14.50;99.90
33739;DHT22;20063;51.730;11.110;2023-03-24T12:14:23;14.60;99.90
33739;DHT22;20063;51.730;11.110;2023-03-24T12:19:34;14.40;99.90
33739;DHT22;20063;51.730;11.110;2023-03-24T12:22:33;14.40;99.90
33739;DHT22;20063;51.730;11.110;2023-03-24T12:27:59;14.30;99.90
33739;DHT22;20063;51.730;11.110;2023-03-24T12:39:01;14.10;99.90
33739;DHT22;20063;51.730;11.110;2023-03-24T12:44:29;14.00;99.90
33739;DHT22;20063;51.730;11.110;2023-03-24T12:49:46;13.90;99.90
33739;DHT22;20063;51.730;11.110;2023-03-24T12:55:11;13.90;99.90
33739;DHT22;20063;51.730;11.110;2023-03-24T12:57:56;14.00;99.90
33739;DHT22;20063;51.730;11.110;2023-03-24T13:00:33;14.20;99.90
33739;DHT22;20063;51.730;11.110;2023-03-24T13:03:05;14.40;99.90
33739;DHT22;20063;51.730;11.110;2023-03-24T13:05:42;14.40;99.90
33739;DHT22;20063;51.730;11.110;2023-03-24T13:08:16;14.50;99.90
33739;DHT22;20063;51.730;11.110;2023-03-24T13:10:44;14.50;99.90
33739;DHT22;20063;51.730;11.110;2023-03-24T13:13:22;14.60;99.90
33739;DHT22;20063;51.730;11.110;2023-03-24T13:15:59;14.70;99.90
33739;DHT22;20063;51.730;11.110;2023-03-24T13:18:54;14.80;99.90
33739;DHT22;20063;51.730;11.110;2023-03-24T13:21:23;14.90;99.90
33739;DHT22;20063;51.730;11.110;2023-03-24T13:24:01;14.90;99.90
33739;DHT22;20063;51.730;11.110;2023-03-24T13:32:03;15.30;99.90
33739;DHT22;20063;51.730;11.110;2023-03-24T13:34:31;15.40;99.90
33739;DHT22;20063;51.730;11.110;2023-03-24T13:37:02;15.20;99.90
33739;DHT22;20063;51.730;11.110;2023-03-24T13:39:30;15.30;99.90
33739;DHT22;20063;51.730;11.110;2023-03-24T13:41:58;15.50;99.90
33739;DHT22;20063;51.730;11.110;2023-03-24T13:44:28;15.50;99.90
33739;DHT22;20063;51.730;11.110;2023-03-24T13:47:13;15.40;99.90
33739;DHT22;20063;51.730;11.110;2023-03-24T13:49:44;15.40;99.90
33739;DHT22;20063;51.730;11.110;2023-03-24T13:52:34;15.20;99.90
33739;DHT22;20063;51.730;11.110;2023-03-24T13:55:08;15.30;99.90
33739;DHT22;20063;51.730;11.110;2023-03-24T13:57:40;15.20;99.90
33739;DHT22;20063;51.730;11.110;2023-03-24T14:10:45;15.30;99.90
33739;DHT22;20063;51.730;11.110;2023-03-24T14:20:59;15.80;99.90
33739;DHT22;20063;51.730;11.110;2023-03-24T14:23:41;16.00;97.80
33739;DHT22;20063;51.730;11.110;2023-03-24T14:26:13;16.10;99.90
33739;DHT22;20063;51.730;11.110;2023-03-24T14:28:40;16.20;96.80
33739;DHT22;20063;51.730;11.110;2023-03-24T14:31:17;16.20;99.90
33739;DHT22;20063;51.730;11.110;2023-03-24T14:36:35;16.20;92.10
33739;DHT22;20063;51.730;11.110;2023-03-24T14:39:11;16.20;91.50
33739;DHT22;20063;51.730;11.110;2023-03-24T14:41:42;16.30;81.30
33739;DHT22;20063;51.730;11.110;2023-03-24T14:44:09;16.30;75.00
33739;DHT22;20063;51.730;11.110;2023-03-24T14:46:38;16.20;79.40
33739;DHT22;20063;51.730;11.110;2023-03-24T14:49:23;16.30;88.50
33739;DHT22;20063;51.730;11.110;2023-03-24T14:55:03;16.30;80.20
33739;DHT22;20063;51.730;11.110;2023-03-24T14:57:36;16.30;79.80
33739;DHT22;20063;51.730;11.110;2023-03-24T15:03:10;16.10;73.10
33739;DHT22;20063;51.730;11.110;2023-03-24T15:05:42;15.80;77.70
33739;DHT22;20063;51.730;11.110;2023-03-24T15:08:20;15.80;83.70
33739;DHT22;20063;51.730;11.110;2023-03-24T15:10:53;15.80;85.30
33739;DHT22;20063;51.730;11.110;2023-03-24T15:23:48;15.10;91.40
33739;DHT22;20063;51.730;11.110;2023-03-24T15:26:15;15.00;96.20
33739;DHT22;20063;51.730;11.110;2023-03-24T15:28:41;14.90;94.80
33739;DHT22;20063;51.730;11.110;2023-03-24T15:31:07;14.80;95.80
33739;DHT22;20063;51.730;11.110;2023-03-24T15:33:41;14.70;97.70
33739;DHT22;20063;51.730;11.110;2023-03-24T15:36:15;14.70;99.00
33739;DHT22;20063;51.730;11.110;2023-03-24T15:38:47;14.70;99.90
33739;DHT22;20063;51.730;11.110;2023-03-24T15:41:15;14.80;99.90
33739;DHT22;20063;51.730;11.110;2023-03-24T15:43:46;14.90;99.90
33739;DHT22;20063;51.730;11.110;2023-03-24T15:46:26;15.20;99.90
33739;DHT22;20063;51.730;11.110;2023-03-24T15:48:53;15.30;99.90
33739;DHT22;20063;51.730;11.110;2023-03-24T15:51:19;15.50;98.10
33739;DHT22;20063;51.730;11.110;2023-03-24T15:53:47;15.50;99.80
33739;DHT22;20063;51.730;11.110;2023-03-24T15:56:30;15.60;98.70
33739;DHT22;20063;51.730;11.110;2023-03-24T15:59:11;15.60;99.00
33739;DHT22;20063;51.730;11.110;2023-03-24T16:01:38;15.60;99.00
33739;DHT22;20063;51.730;11.110;2023-03-24T16:04:10;15.50;99.50
33739;DHT22;20063;51.730;11.110;2023-03-24T16:06:50;15.40;99.80
33739;DHT22;20063;51.730;11.110;2023-03-24T16:09:19;15.40;99.90
33739;DHT22;20063;51.730;11.110;2023-03-24T16:11:47;15.30;99.90
33739;DHT22;20063;51.730;11.110;2023-03-24T16:14:25;15.20;99.90
33739;DHT22;20063;51.730;11.110;2023-03-24T16:16:53;15.20;99.90
33739;DHT22;20063;51.730;11.110;2023-03-24T16:19:19;15.30;99.90
33739;DHT22;20063;51.730;11.110;2023-03-24T16:21:45;15.40;99.90
33739;DHT22;20063;51.730;11.110;2023-03-24T16:24:15;15.50;99.90
33739;DHT22;20063;51.730;11.110;2023-03-24T16:26:41;15.70;99.90
33739;DHT22;20063;51.730;11.110;2023-03-24T16:31:39;16.00;99.20
33739;DHT22;20063;51.730;11.110;2023-03-24T16:34:04;16.00;98.80
33739;DHT22;20063;51.730;11.110;2023-03-24T16:36:30;16.00;99.90
33739;DHT22;20063;51.730;11.110;2023-03-24T16:38:57;16.20;99.90
33739;DHT22;20063;51.730;11.110;2023-03-24T16:41:24;16.30;99.30
33739;DHT22;20063;51.730;11.110;2023-03-24T16:43:49;16.30;99.90
33739;DHT22;20063;51.730;11.110;2023-03-24T16:48:52;16.60;99.90
33739;DHT22;20063;51.730;11.110;2023-03-24T16:51:18;16.60;99.90
33739;DHT22;20063;51.730;11.110;2023-03-24T16:53:44;16.50;99.90
33739;DHT22;20063;51.730;11.110;2023-03-24T16:56:22;16.30;99.90
33739;DHT22;20063;51.730;11.110;2023-03-24T16:58:49;16.00;99.90
33739;DHT22;20063;51.730;11.110;2023-03-24T17:01:17;15.80;99.90
33739;DHT22;20063;51.730;11.110;2023-03-24T17:03:55;15.50;99.90
33739;DHT22;20063;51.730;11.110;2023-03-24T17:06:22;15.20;99.90
33739;DHT22;20063;51.730;11.110;2023-03-24T17:08:47;15.00;99.90
33739;DHT22;20063;51.730;11.110;2023-03-24T17:11:15;14.80;99.90
33739;DHT22;20063;51.730;11.110;2023-03-24T17:13:43;14.60;99.90
33739;DHT22;20063;51.730;11.110;2023-03-24T17:16:11;14.50;99.90
33739;DHT22;20063;51.730;11.110;2023-03-24T17:18:37;14.30;99.90
33739;DHT22;20063;51.730;11.110;2023-03-24T17:21:10;14.20;99.90
33739;DHT22;20063;51.730;11.110;2023-03-24T17:23:37;14.20;99.90
33739;DHT22;20063;51.730;11.110;2023-03-24T17:26:02;14.00;99.90
33739;DHT22;20063;51.730;11.110;2023-03-24T17:28:28;14.00;99.90
33739;DHT22;20063;51.730;11.110;2023-03-24T17:30:54;13.90;99.90
33739;DHT22;20063;51.730;11.110;2023-03-24T17:33:19;13.90;99.90
33739;DHT22;20063;51.730;11.110;2023-03-24T17:35:45;13.80;99.90
33739;DHT22;20063;51.730;11.110;2023-03-24T17:38:13;13.80;99.90
33739;DHT22;20063;51.730;11.110;2023-03-24T17:40:43;13.80;99.90
33739;DHT22;20063;51.730;11.110;2023-03-24T17:43:10;13.80;99.90
33739;DHT22;20063;51.730;11.110;2023-03-24T17:45:36;13.70;99.90
33739;DHT22;20063;51.730;11.110;2023-03-24T17:48:04;13.70;99.90
33739;DHT22;20063;51.730;11.110;2023-03-24T17:50:29;13.60;99.90
33739;DHT22;20063;51.730;11.110;2023-03-24T17:52:55;13.60;99.90
33739;DHT22;20063;51.730;11.110;2023-03-24T17:55:20;13.50;99.90
33739;DHT22;20063;51.730;11.110;2023-03-24T17:57:46;13.50;99.90
33739;DHT22;20063;51.730;11.110;2023-03-24T18:00:12;13.50;99.90
33739;DHT22;20063;51.730;11.110;2023-03-24T18:02:39;13.40;99.90
33739;DHT22;20063;51.730;11.110;2023-03-24T18:05:07;13.40;99.90
33739;DHT22;20063;51.730;11.110;2023-03-24T18:07:34;13.30;99.90
33739;DHT22;20063;51.730;11.110;2023-03-24T18:10:00;13.30;99.90
33739;DHT22;20063;51.730;11.110;2023-03-24T18:12:26;13.30;99.90
33739;DHT22;20063;51.730;11.110;2023-03-24T18:14:52;13.30;99.90
33739;DHT22;20063;51.730;11.110;2023-03-24T18:17:18;13.20;99.90
33739;DHT22;20063;51.730;11.110;2023-03-24T18:19:47;13.20;99.90